Time;durP1;ratioP1;P1;durP2;ratioP2;P2;SDS_P1;SDS_P2;PMS_P1;PMS_P2;Temp;Humidity;BMP_temperature;BMP_pressure;BME280_temperature;BME280_humidity;BME280_pressure;Samples;Min_cycle;Max_cycle;Signal;HPM_P1;HPM_P2
2022/03/18 00:02:26;;;;;;;12.27;6.90;;;;;;;0.98;100.00;96543.16;5022805;28;20056;-51
2022/03/18 00:04:54;;;;;;;15.27;7.63;;;;;;;0.91;100.00;96540.28;5023027;28;20475;-47
2022/03/18 00:07:21;;;;;;;15.52;7.63;;;;;;;0.91;100.00;96535.97;5022587;28;20052;-48
2022/03/18 00:09:48;;;;;;;21.20;11.00;;;;;;;0.88;100.00;96528.53;5026977;28;20044;-53
2022/03/18 00:12:16;;;;;;;17.75;9.30;;;;;;;1.03;100.00;96541.03;5021696;28;20045;-50
2022/03/18 00:14:44;;;;;;;13.27;7.75;;;;;;;0.97;100.00;96549.22;5028287;28;20048;-50
2022/03/18 00:17:11;;;;;;;16.15;8.88;;;;;;;0.80;100.00;96541.19;5020987;28;20489;-50
2022/03/18 00:19:39;;;;;;;16.25;8.55;;;;;;;0.86;100.00;96545.78;5023091;28;20070;-49
2022/03/18 00:22:06;;;;;;;12.98;6.80;;;;;;;0.80;100.00;96543.75;5027524;28;20430;-48
2022/03/18 00:24:34;;;;;;;13.38;7.63;;;;;;;0.84;100.00;96547.69;5021354;28;20033;-49
2022/03/18 00:27:05;;;;;;;13.63;7.15;;;;;;;0.93;100.00;96546.91;5021249;28;20485;-51
2022/03/18 00:29:32;;;;;;;12.23;6.70;;;;;;;0.95;100.00;96545.03;5022090;28;20053;-50
2022/03/18 00:32:00;;;;;;;14.13;6.65;;;;;;;1.00;100.00;96551.53;5021760;28;20049;-49
2022/03/18 00:34:31;;;;;;;15.35;6.85;;;;;;;1.01;100.00;96542.88;5026143;28;20048;-48
2022/03/18 00:36:57;;;;;;;11.55;6.53;;;;;;;0.99;100.00;96552.47;5021883;28;20502;-51
2022/03/18 00:39:24;;;;;;;13.13;6.65;;;;;;;1.00;100.00;96556.66;5021734;28;20045;-48
2022/03/18 00:41:51;;;;;;;11.63;6.00;;;;;;;0.98;100.00;96553.41;5022363;28;20076;-50
2022/03/18 00:44:18;;;;;;;10.77;5.22;;;;;;;1.06;100.00;96556.13;5021752;28;20050;-47
2022/03/18 00:46:45;;;;;;;13.80;6.40;;;;;;;1.07;99.17;96562.91;5021495;28;20485;-51
2022/03/18 00:52:06;;;;;;;10.80;6.38;;;;;;;1.04;98.22;96563.16;5021166;28;20049;-52
2022/03/18 00:54:42;;;;;;;9.23;5.47;;;;;;;0.95;99.12;96569.88;5020916;28;20043;-50
2022/03/18 00:57:10;;;;;;;13.23;6.32;;;;;;;0.91;99.92;96578.78;5021305;28;20049;-48
2022/03/18 00:59:37;;;;;;;15.15;6.35;;;;;;;0.86;99.29;96556.06;5026601;28;20404;-51
2022/03/18 01:02:05;;;;;;;12.77;6.75;;;;;;;0.86;97.14;96571.44;5023231;28;20061;-54
2022/03/18 01:04:32;;;;;;;11.38;6.25;;;;;;;0.88;95.71;96572.16;5023118;28;22507;-47
2022/03/18 01:06:59;;;;;;;14.55;7.07;;;;;;;0.77;95.89;96567.09;5021502;28;20057;-47
2022/03/18 01:09:27;;;;;;;12.88;6.03;;;;;;;0.73;96.06;96568.28;5021165;28;20098;-47
2022/03/18 01:11:54;;;;;;;11.20;6.53;;;;;;;0.82;94.56;96582.09;5022576;28;20053;-49
2022/03/18 01:14:22;;;;;;;16.40;7.20;;;;;;;0.77;94.64;96572.22;5025488;28;20041;-52
2022/03/18 01:16:49;;;;;;;10.05;5.82;;;;;;;0.61;95.75;96561.59;5020918;28;20045;-49
2022/03/18 01:19:18;;;;;;;11.38;6.20;;;;;;;0.72;96.01;96584.59;5022829;28;20041;-52
2022/03/18 01:21:45;;;;;;;10.65;5.80;;;;;;;0.67;96.21;96566.22;5020975;28;20140;-47
2022/03/18 01:24:12;;;;;;;12.52;6.43;;;;;;;0.64;95.90;96581.88;5021105;28;20041;-48
2022/03/18 01:26:40;;;;;;;11.63;5.97;;;;;;;0.61;95.59;96579.53;5020946;28;20433;-49
2022/03/18 01:29:07;;;;;;;10.35;5.88;;;;;;;0.52;96.08;96579.38;5022176;28;20718;-49
2022/03/18 01:31:34;;;;;;;9.80;5.07;;;;;;;0.42;95.97;96563.09;5022029;28;20139;-49
2022/03/18 01:34:01;;;;;;;13.00;6.28;;;;;;;0.45;95.80;96582.53;5020155;28;20403;-50
2022/03/18 01:36:28;;;;;;;9.80;5.97;;;;;;;0.32;95.87;96570.72;5021601;28;20438;-51
2022/03/18 01:38:55;;;;;;;11.85;7.03;;;;;;;0.26;95.86;96567.84;5028061;28;20060;-51
2022/03/18 01:41:22;;;;;;;9.65;5.13;;;;;;;0.12;96.45;96569.75;5022204;28;20042;-49
2022/03/18 01:43:49;;;;;;;16.45;5.80;;;;;;;0.16;95.68;96568.59;5020652;28;20045;-51
2022/03/18 01:46:17;;;;;;;9.93;6.30;;;;;;;0.13;96.63;96568.84;5024145;28;20091;-47
2022/03/18 01:48:45;;;;;;;12.15;5.45;;;;;;;0.21;96.81;96575.09;5020456;28;20592;-49
2022/03/18 01:51:15;;;;;;;13.43;5.68;;;;;;;0.26;96.67;96578.09;5020130;28;20037;-48
2022/03/18 01:53:44;;;;;;;11.25;6.32;;;;;;;0.28;96.70;96586.47;5025681;28;20042;-47
2022/03/18 01:56:11;;;;;;;14.63;7.15;;;;;;;0.26;97.12;96578.09;5020536;28;20060;-52
2022/03/18 01:58:39;;;;;;;14.13;6.50;;;;;;;0.30;96.69;96574.34;5021843;28;20053;-48
2022/03/18 02:01:08;;;;;;;12.27;5.82;;;;;;;0.37;97.47;96601.13;5022079;28;20046;-49
2022/03/18 02:03:35;;;;;;;14.45;5.95;;;;;;;0.42;97.54;96596.44;5020229;28;20128;-49
2022/03/18 02:06:02;;;;;;;13.25;6.88;;;;;;;0.44;97.48;96594.56;5020342;28;20057;-50
2022/03/18 02:08:29;;;;;;;15.68;6.63;;;;;;;0.45;98.00;96593.63;5020449;28;20548;-47
2022/03/18 02:10:56;;;;;;;13.98;6.13;;;;;;;0.46;98.38;96584.97;5020500;28;20056;-50
2022/03/18 02:13:23;;;;;;;12.07;6.70;;;;;;;0.51;99.16;96598.25;5026045;28;20494;-48
2022/03/18 02:15:49;;;;;;;13.80;6.75;;;;;;;0.58;99.11;96593.44;5026387;28;20049;-51
2022/03/18 02:18:16;;;;;;;12.75;5.63;;;;;;;0.64;100.00;96602.38;5020728;28;20045;-53
2022/03/18 02:20:43;;;;;;;14.45;6.68;;;;;;;0.63;99.89;96611.84;5021934;28;20048;-50
2022/03/18 02:23:10;;;;;;;10.85;6.53;;;;;;;0.65;100.00;96614.25;5020370;28;20080;-52
2022/03/18 02:25:37;;;;;;;12.23;6.20;;;;;;;0.53;100.00;96596.38;5020608;28;20521;-54
2022/03/18 02:28:04;;;;;;;12.00;6.20;;;;;;;0.61;100.00;96612.88;5020408;28;20518;-49
2022/03/18 02:30:34;;;;;;;14.48;6.15;;;;;;;0.57;100.00;96607.19;5020032;28;20585;-51
2022/03/18 02:33:02;;;;;;;10.10;6.65;;;;;;;0.54;100.00;96610.81;5021130;28;20120;-48
2022/03/18 02:35:29;;;;;;;12.15;7.32;;;;;;;0.51;100.00;96608.50;5021213;28;20065;-52
2022/03/18 02:37:57;;;;;;;10.23;6.80;;;;;;;0.45;100.00;96609.00;5027623;28;20430;-48
2022/03/18 02:40:25;;;;;;;11.82;7.40;;;;;;;0.37;100.00;96607.03;5021302;28;20384;-47
2022/03/18 02:42:52;;;;;;;13.07;7.25;;;;;;;0.39;100.00;96609.50;5020239;28;20126;-48
2022/03/18 02:45:20;;;;;;;11.23;6.90;;;;;;;0.32;100.00;96610.91;5025566;28;20498;-47
2022/03/18 02:47:47;;;;;;;13.07;6.43;;;;;;;0.31;100.00;96611.88;5019737;28;20045;-48
2022/03/18 02:50:15;;;;;;;12.77;7.55;;;;;;;0.29;100.00;96608.59;5019612;28;20045;-46
2022/03/18 02:52:44;;;;;;;12.07;7.20;;;;;;;0.32;100.00;96609.16;5019157;28;20052;-50
2022/03/18 02:55:11;;;;;;;15.68;8.27;;;;;;;0.28;100.00;96617.22;5023168;28;20049;-47
2022/03/18 02:57:39;;;;;;;15.80;6.97;;;;;;;0.18;100.00;96623.09;5023412;28;20041;-51
2022/03/18 03:00:07;;;;;;;10.43;7.22;;;;;;;0.10;100.00;96628.00;5023380;28;20618;-50
2022/03/18 03:02:34;;;;;;;13.48;7.75;;;;;;;0.09;100.00;96634.09;5023500;28;20418;-52
2022/03/18 03:08:00;;;;;;;17.08;7.63;;;;;;;0.10;100.00;96645.13;5024622;28;20049;-50
2022/03/18 03:10:31;;;;;;;10.60;6.57;;;;;;;0.07;100.00;96651.28;5022443;28;20069;-52
2022/03/18 03:13:06;;;;;;;15.75;7.93;;;;;;;-0.01;100.00;96643.41;5023121;28;20042;-52
2022/03/18 03:15:33;;;;;;;14.10;7.97;;;;;;;-0.01;100.00;96653.66;5029016;28;20061;-50
2022/03/18 03:18:00;;;;;;;13.70;7.68;;;;;;;-0.08;100.00;96648.19;5027892;28;20037;-50
2022/03/18 03:20:27;;;;;;;14.45;8.30;;;;;;;-0.11;100.00;96650.19;5028214;28;20053;-47
2022/03/18 03:22:53;;;;;;;15.50;8.68;;;;;;;-0.18;100.00;96631.94;5023541;28;20041;-47
2022/03/18 03:25:20;;;;;;;11.40;6.95;;;;;;;-0.14;100.00;96653.00;5023447;28;20045;-46
2022/03/18 03:27:51;;;;;;;10.52;7.00;;;;;;;-0.20;100.00;96644.84;5023023;28;20063;-49
2022/03/18 03:30:17;;;;;;;12.77;8.05;;;;;;;-0.28;100.00;96657.44;5027692;28;20477;-49
2022/03/18 03:32:44;;;;;;;15.43;7.45;;;;;;;-0.26;100.00;96658.13;5022593;28;20045;-50
2022/03/18 03:35:12;;;;;;;10.98;6.57;;;;;;;-0.74;100.00;96589.28;5025508;28;20048;-49
2022/03/18 03:37:39;;;;;;;10.55;5.50;;;;;;;-0.32;100.00;96666.28;5035587;28;20052;-47
2022/03/18 03:40:06;;;;;;;11.00;6.53;;;;;;;-0.37;100.00;96668.38;5024351;28;20045;-47
2022/03/18 03:42:33;;;;;;;13.88;8.30;;;;;;;-0.37;100.00;96663.25;5023062;28;20041;-48
2022/03/18 03:45:00;;;;;;;20.45;8.20;;;;;;;-0.46;100.00;96648.63;5027424;28;20033;-48
2022/03/18 03:47:27;;;;;;;13.18;7.55;;;;;;;-0.43;100.00;96668.88;5022764;28;20041;-51
2022/03/18 03:49:54;;;;;;;17.30;8.70;;;;;;;-0.48;100.00;96660.72;5022730;28;20053;-49
2022/03/18 03:52:20;;;;;;;13.73;7.47;;;;;;;-0.60;100.00;96653.03;5023189;28;20520;-54
2022/03/18 03:54:47;;;;;;;12.30;7.57;;;;;;;-0.59;100.00;96670.03;5022472;28;20045;-51
2022/03/18 03:57:14;;;;;;;16.85;9.40;;;;;;;-0.63;100.00;96673.75;5022750;28;20056;-47
2022/03/18 03:59:40;;;;;;;20.90;8.63;;;;;;;-0.63;100.00;96683.16;5022333;28;20073;-51
2022/03/18 04:02:08;;;;;;;16.17;6.75;;;;;;;-0.60;100.00;96681.16;5023424;28;20057;-47
2022/03/18 04:04:35;;;;;;;13.50;6.00;;;;;;;-0.71;100.00;96660.69;5022796;28;20038;-46
2022/03/18 04:07:02;;;;;;;11.63;6.05;;;;;;;-0.66;100.00;96676.53;5022457;28;20128;-47
2022/03/18 04:09:29;;;;;;;10.25;6.28;;;;;;;-0.56;100.00;96683.50;5022320;28;20041;-46
2022/03/18 04:11:56;;;;;;;13.38;6.50;;;;;;;-0.51;100.00;96691.66;5023822;28;20060;-49
2022/03/18 04:14:23;;;;;;;13.18;7.07;;;;;;;-0.51;100.00;96691.66;5026090;28;20460;-51
2022/03/18 04:16:49;;;;;;;10.45;5.60;;;;;;;-0.47;100.00;96695.59;5022575;28;20072;-51
2022/03/18 04:19:17;;;;;;;17.10;6.68;;;;;;;-0.47;100.00;96700.72;5021573;28;20477;-52
2022/03/18 04:21:44;;;;;;;12.05;6.15;;;;;;;-0.45;100.00;96698.88;5023396;28;20048;-53
2022/03/18 04:24:11;;;;;;;15.05;7.90;;;;;;;-0.47;100.00;96693.06;5022325;28;20049;-50
2022/03/18 04:26:41;;;;;;;13.32;7.45;;;;;;;-0.45;100.00;96701.44;5025436;28;20069;-51
2022/03/18 04:29:08;;;;;;;19.58;9.70;;;;;;;-0.48;100.00;96696.56;5021821;28;20065;-49
2022/03/18 04:31:35;;;;;;;19.27;9.80;;;;;;;-0.43;100.00;96712.38;5021984;28;20037;-46
2022/03/18 04:34:03;;;;;;;19.45;9.77;;;;;;;-0.44;100.00;96709.00;5025288;28;20495;-48
2022/03/18 04:36:30;;;;;;;16.95;7.95;;;;;;;-0.38;100.00;96720.50;5023005;28;20129;-50
2022/03/18 04:38:59;;;;;;;11.57;6.60;;;;;;;-0.40;100.00;96719.81;5029293;28;20072;-47
2022/03/18 04:41:25;;;;;;;12.25;6.10;;;;;;;-0.45;100.00;96716.78;5022973;28;20049;-49
2022/03/18 04:43:52;;;;;;;13.55;7.15;;;;;;;-0.45;100.00;96721.91;5021995;28;20049;-47
2022/03/18 04:46:20;;;;;;;13.18;7.75;;;;;;;-0.46;100.00;96720.28;5022013;28;20041;-48
2022/03/18 04:48:47;;;;;;;22.25;10.40;;;;;;;-0.41;100.00;96723.31;5022812;28;20049;-49
2022/03/18 04:51:13;;;;;;;19.42;9.90;;;;;;;-0.41;100.00;96728.44;5021716;28;20045;-51
2022/03/18 04:53:42;;;;;;;23.08;11.93;;;;;;;-0.42;100.00;96726.81;5021698;28;20037;-45
2022/03/18 04:57:15;;;;;;;24.17;11.00;;;;;;;-0.52;100.00;96715.63;5022393;28;20048;-48
2022/03/18 04:58:56;;;;;;;20.15;10.90;;;;;;;-0.49;100.00;96725.63;5020524;28;20041;-47
2022/03/18 05:01:23;;;;;;;18.50;10.68;;;;;;;-0.51;100.00;96725.75;5024539;28;20041;-47
2022/03/18 05:03:50;;;;;;;23.30;11.07;;;;;;;-0.40;100.00;96737.75;5019212;28;20115;-47
2022/03/18 05:06:17;;;;;;;13.88;7.93;;;;;;;-0.42;100.00;96742.16;5021141;28;20555;-49
2022/03/18 05:08:44;;;;;;;13.50;7.65;;;;;;;-0.40;100.00;96750.53;5019719;28;20065;-49
2022/03/18 05:11:12;;;;;;;18.30;9.30;;;;;;;-0.38;100.00;96748.69;5019401;28;20041;-49
2022/03/18 05:13:40;;;;;;;20.60;12.38;;;;;;;-0.39;100.00;96747.88;5018467;28;20050;-48
2022/03/18 05:16:06;;;;;;;17.60;11.18;;;;;;;-0.30;100.00;96758.34;5017521;28;20376;-45
2022/03/18 05:18:34;;;;;;;17.90;11.27;;;;;;;-0.33;100.00;96751.72;5020516;28;20049;-48
2022/03/18 05:21:00;;;;;;;16.15;10.25;;;;;;;-0.29;100.00;96758.25;5018242;28;20061;-49
2022/03/18 05:23:27;;;;;;;15.25;10.00;;;;;;;-0.24;100.00;96760.44;5019741;28;20068;-50
2022/03/18 05:25:54;;;;;;;11.77;7.35;;;;;;;-0.22;100.00;96754.28;5016984;28;20045;-53
2022/03/18 05:28:21;;;;;;;13.75;8.25;;;;;;;-0.21;100.00;96761.03;5019462;28;20521;-48
2022/03/18 05:30:48;;;;;;;14.32;8.10;;;;;;;-0.15;100.00;96767.44;5022941;28;20053;-47
2022/03/18 05:33:15;;;;;;;12.35;7.30;;;;;;;-0.16;100.00;96758.13;5020925;28;20057;-49
2022/03/18 05:35:41;;;;;;;14.35;7.45;;;;;;;-0.09;99.70;96769.53;5017992;28;20560;-50
2022/03/18 05:38:08;;;;;;;11.68;6.53;;;;;;;-0.07;99.27;96772.00;5016481;28;20060;-49
2022/03/18 05:40:35;;;;;;;10.43;6.68;;;;;;;-0.07;98.87;96777.13;5018416;28;20041;-51
2022/03/18 05:43:02;;;;;;;12.75;6.05;;;;;;;-0.07;98.46;96772.00;5015777;28;20099;-52
2022/03/18 05:45:29;;;;;;;9.95;5.78;;;;;;;-0.10;98.28;96772.22;5021425;28;20053;-48
2022/03/18 05:47:56;;;;;;;10.95;5.28;;;;;;;-0.12;98.72;96774.88;5016812;28;20064;-50
2022/03/18 05:50:24;;;;;;;16.80;7.18;;;;;;;-0.15;99.25;96784.56;5016704;28;20149;-47
2022/03/18 05:52:51;;;;;;;13.68;5.90;;;;;;;-0.05;99.40;96782.94;5020751;28;20480;-50
2022/03/18 05:55:18;;;;;;;9.18;5.68;;;;;;;-0.07;98.79;96782.22;5017857;28;20138;-48
2022/03/18 05:57:45;;;;;;;11.00;5.90;;;;;;;-0.02;98.46;96787.78;5017848;28;20168;-47
2022/03/18 06:00:14;;;;;;;28.08;11.93;;;;;;;-0.02;98.51;96790.34;5018614;28;20053;-49
2022/03/18 06:02:41;;;;;;;37.35;16.65;;;;;;;-0.08;98.02;96780.59;5017844;28;20459;-52
2022/03/18 06:05:09;;;;;;;56.17;24.33;;;;;;;0.01;97.60;96800.38;5018837;28;20049;-49
2022/03/18 06:07:37;;;;;;;55.80;26.00;;;;;;;0.03;97.07;96803.63;5016917;28;20372;-47
2022/03/18 06:12:50;;;;;;;29.23;14.63;;;;;;;0.10;97.13;96812.50;5020247;28;20072;-45
2022/03/18 06:15:16;;;;;;;22.42;12.35;;;;;;;0.11;97.15;96816.69;5020107;28;20045;-48
2022/03/18 06:17:43;;;;;;;19.15;12.02;;;;;;;0.04;97.37;96818.09;5019568;28;20044;-51
2022/03/18 06:20:10;;;;;;;15.07;9.68;;;;;;;0.04;96.85;96825.78;5022460;28;20549;-49
2022/03/18 06:22:37;;;;;;;18.95;10.43;;;;;;;0.06;95.86;96826.47;5021679;28;20454;-51
2022/03/18 06:25:04;;;;;;;16.55;9.00;;;;;;;0.06;95.81;96829.03;5017996;28;20569;-47
2022/03/18 06:27:31;;;;;;;19.63;10.65;;;;;;;0.10;95.65;96830.44;5015735;28;20948;-47
2022/03/18 06:29:59;;;;;;;14.73;7.45;;;;;;;0.07;95.48;96830.66;5019394;28;20115;-51
2022/03/18 06:32:26;;;;;;;15.75;8.57;;;;;;;0.06;95.63;96828.22;5020509;28;20449;-46
2022/03/18 06:34:53;;;;;;;22.15;11.43;;;;;;;0.13;95.76;96834.53;5022093;28;20052;-46
2022/03/18 06:37:20;;;;;;;14.43;9.75;;;;;;;0.22;95.50;96843.22;5024689;28;20053;-46
2022/03/18 06:39:47;;;;;;;13.25;6.82;;;;;;;0.13;95.06;96824.28;5022798;28;20048;-49
2022/03/18 06:42:13;;;;;;;14.20;8.05;;;;;;;0.30;95.44;96846.03;5025246;28;20041;-50
2022/03/18 06:44:40;;;;;;;13.50;6.95;;;;;;;0.31;95.43;96851.06;5022346;28;20045;-46
2022/03/18 06:47:07;;;;;;;12.73;7.47;;;;;;;0.37;95.35;96858.25;5021548;28;20045;-46
2022/03/18 06:49:34;;;;;;;17.02;10.20;;;;;;;0.48;94.49;96854.06;5020632;28;20048;-49
2022/03/18 06:52:02;;;;;;;14.82;8.55;;;;;;;0.49;93.42;96850.59;5020560;28;20471;-49
2022/03/18 06:54:29;;;;;;;14.18;8.30;;;;;;;0.55;93.59;96856.03;5021818;28;20041;-51
2022/03/18 06:56:56;;;;;;;12.35;6.72;;;;;;;0.67;93.44;96863.72;5023240;28;20053;-48
2022/03/18 06:59:22;;;;;;;14.20;8.75;;;;;;;0.72;92.45;96871.84;5021773;28;20054;-48
2022/03/18 07:01:49;;;;;;;12.52;7.82;;;;;;;0.69;92.41;96856.72;5021908;28;20057;-48
2022/03/18 07:04:22;;;;;;;21.23;10.60;;;;;;;0.75;91.80;96871.63;5021777;28;20045;-51
2022/03/18 07:06:48;;;;;;;19.73;6.97;;;;;;;0.88;91.87;96867.19;5021998;28;20045;-48
2022/03/18 07:09:15;;;;;;;13.15;7.88;;;;;;;1.03;92.19;96872.84;5021222;28;20450;-50
2022/03/18 07:11:42;;;;;;;12.77;5.90;;;;;;;1.13;91.01;96870.38;5021616;28;20045;-50
2022/03/18 07:14:08;;;;;;;13.25;6.30;;;;;;;1.03;89.65;96859.22;5025542;28;20049;-47
2022/03/18 07:19:20;;;;;;;;;;;;;;;1.29;89.33;96880.22;5022269;28;20053;-50
2022/03/18 07:21:47;;;;;;;9.70;5.93;;;;;;;1.38;88.95;96883.81;5021493;28;19933;-49
2022/03/18 07:24:14;;;;;;;10.68;5.47;;;;;;;1.27;87.27;96877.78;5022091;28;20046;-46
2022/03/18 07:26:40;;;;;;;11.90;5.85;;;;;;;1.23;87.34;96871.28;5021545;28;20048;-46
2022/03/18 07:29:07;;;;;;;11.40;6.22;;;;;;;1.28;86.59;96874.28;5022098;28;21766;-50
2022/03/18 07:31:34;;;;;;;10.63;5.47;;;;;;;1.46;87.48;96871.16;5024152;28;20099;-47
2022/03/18 07:34:01;;;;;;;12.68;6.20;;;;;;;1.63;84.95;96873.19;5021246;28;20141;-47
2022/03/18 07:36:27;;;;;;;13.82;6.35;;;;;;;1.79;83.40;96877.09;5021774;28;20583;-53
2022/03/18 07:38:54;;;;;;;17.75;8.43;;;;;;;1.84;83.16;96882.69;5022402;28;20053;-47
2022/03/18 07:41:21;;;;;;;10.70;5.82;;;;;;;1.82;82.74;96880.22;5021872;28;20135;-50
2022/03/18 07:43:48;;;;;;;9.30;4.60;;;;;;;1.93;82.04;96884.47;5022239;28;20065;-49
2022/03/18 07:46:15;;;;;;;12.13;6.53;;;;;;;2.12;82.54;96877.81;5021448;28;20473;-49
2022/03/18 07:48:44;;;;;;;6.30;4.25;;;;;;;2.07;79.94;96881.59;5020859;28;20053;-53
2022/03/18 07:51:12;;;;;;;8.13;5.10;;;;;;;2.23;77.50;96895.72;5021338;28;20065;-49
2022/03/18 07:53:39;;;;;;;11.25;6.20;;;;;;;1.95;78.59;96884.38;5021695;28;20433;-54
2022/03/18 07:56:05;;;;;;;12.48;5.63;;;;;;;2.21;77.74;96887.31;5021267;28;20034;-50
2022/03/18 07:58:32;;;;;;;9.27;5.30;;;;;;;2.22;79.12;96873.53;5021753;28;20818;-50
2022/03/18 08:00:59;;;;;;;10.93;5.57;;;;;;;2.31;78.30;96888.19;5021601;28;20068;-51
2022/03/18 08:03:26;;;;;;;8.32;4.88;;;;;;;2.44;77.00;96883.63;5019299;28;20494;-48
2022/03/18 08:05:53;;;;;;;11.50;5.75;;;;;;;2.40;77.66;96892.56;5019862;28;20045;-52
2022/03/18 08:08:19;;;;;;;13.95;7.45;;;;;;;2.47;78.11;96892.88;5020190;28;21257;-48
2022/03/18 08:10:46;;;;;;;10.77;5.85;;;;;;;2.53;77.32;96896.69;5019937;28;20038;-51
2022/03/18 08:13:15;;;;;;;11.98;6.03;;;;;;;2.46;74.80;96902.31;5020425;28;20061;-51
2022/03/18 08:15:44;;;;;;;11.32;6.22;;;;;;;2.55;77.16;96889.63;5024755;28;20050;-53
2022/03/18 08:18:12;;;;;;;13.43;6.72;;;;;;;2.80;76.84;96896.88;5020858;28;20041;-52
2022/03/18 08:20:41;;;;;;;11.93;6.00;;;;;;;2.71;75.56;96891.72;5021988;28;20049;-47
2022/03/18 08:23:14;;;;;;;11.27;5.65;;;;;;;2.43;74.46;96887.16;5023905;28;20042;-48
2022/03/18 08:25:41;;;;;;;8.63;4.90;;;;;;;2.40;73.70;96891.75;5018237;28;20049;-46
2022/03/18 08:28:08;;;;;;;11.98;6.75;;;;;;;2.17;75.64;96885.97;5020595;28;20041;-48
2022/03/18 08:30:35;;;;;;;14.35;7.22;;;;;;;2.36;76.20;96883.47;5019333;28;20057;-51
2022/03/18 08:33:03;;;;;;;11.98;5.72;;;;;;;2.35;71.77;96883.59;5019148;28;20071;-47
2022/03/18 08:35:30;;;;;;;11.10;6.28;;;;;;;2.33;69.77;96876.03;5021242;28;20056;-50
2022/03/18 08:37:57;;;;;;;21.00;8.45;;;;;;;2.59;70.21;96878.97;5025352;28;20042;-49
2022/03/18 08:40:29;;;;;;;10.07;6.60;;;;;;;2.82;71.70;96881.31;5016305;28;20034;-50
2022/03/18 08:42:58;;;;;;;8.73;5.45;;;;;;;3.24;67.00;96870.81;5019030;28;20481;-47
2022/03/18 08:45:26;;;;;;;12.85;6.22;;;;;;;3.42;66.33;96868.38;5020106;28;20065;-52
2022/03/18 08:47:53;;;;;;;18.65;7.22;;;;;;;3.00;67.11;96884.06;5017184;28;20875;-52
2022/03/18 08:50:22;;;;;;;14.00;6.63;;;;;;;3.17;63.78;96880.84;5020932;28;20135;-53
2022/03/18 08:52:51;;;;;;;4.15;1.85;;;;;;;2.71;64.32;96869.38;5022883;28;20648;-53
2022/03/18 08:55:18;;;;;;;11.38;5.97;;;;;;;3.19;67.25;96873.00;5018031;28;20061;-52
2022/03/18 08:57:45;;;;;;;11.98;7.55;;;;;;;3.53;65.74;96870.00;5018321;28;20099;-53
2022/03/18 09:00:17;;;;;;;8.32;4.78;;;;;;;3.77;63.85;96864.44;5016490;28;20065;-49
2022/03/18 09:02:47;;;;;;;8.43;4.63;;;;;;;3.93;61.02;96872.41;5017896;28;20041;-55
2022/03/18 09:05:14;;;;;;;12.18;5.38;;;;;;;4.17;61.62;96871.91;5017474;28;20061;-52
2022/03/18 09:07:41;;;;;;;10.30;6.30;;;;;;;4.43;56.25;96873.06;5018504;28;20072;-51
2022/03/18 09:10:09;;;;;;;9.10;4.75;;;;;;;4.38;56.11;96876.88;5021587;28;20053;-48
2022/03/18 09:12:44;;;;;;;12.23;5.95;;;;;;;4.50;57.85;96868.94;5017073;28;20057;-53
2022/03/18 09:15:12;;;;;;;11.15;5.28;;;;;;;4.74;57.47;96866.66;5021190;28;20065;-52
2022/03/18 09:17:39;;;;;;;15.38;5.47;;;;;;;4.65;56.76;96846.88;5017267;28;20041;-53
2022/03/18 09:20:06;;;;;;;11.05;6.53;;;;;;;4.84;56.44;96865.81;5016483;28;20076;-53
2022/03/18 09:22:33;;;;;;;10.55;6.15;;;;;;;5.07;57.06;96872.19;5022032;28;20037;-52
2022/03/18 09:25:00;;;;;;;10.43;5.43;;;;;;;5.35;55.17;96879.88;5023298;28;20045;-51
2022/03/18 09:27:26;;;;;;;7.30;4.30;;;;;;;5.33;52.60;96861.09;5020965;28;20060;-53
2022/03/18 09:29:53;;;;;;;8.27;5.00;;;;;;;5.22;54.49;96874.25;5016480;28;20053;-52
2022/03/18 09:32:20;;;;;;;9.25;5.50;;;;;;;5.41;52.96;96874.13;5016964;28;20137;-54
2022/03/18 09:34:47;;;;;;;10.10;5.10;;;;;;;5.59;54.76;96870.72;5022142;28;20053;-55
2022/03/18 09:37:13;;;;;;;13.18;5.57;;;;;;;5.71;52.31;96869.53;5022546;28;20049;-52
2022/03/18 09:39:40;;;;;;;13.07;6.70;;;;;;;5.49;52.41;96876.78;5016200;28;20053;-51
2022/03/18 09:42:09;;;;;;;10.18;6.10;;;;;;;5.83;52.40;96883.81;5015646;28;20049;-54
2022/03/18 09:44:37;;;;;;;14.20;8.02;;;;;;;6.09;50.59;96872.72;5014481;28;20053;-51
2022/03/18 09:47:06;;;;;;;7.97;4.68;;;;;;;6.21;51.27;96881.84;5016156;28;20120;-49
2022/03/18 09:49:35;;;;;;;9.50;4.65;;;;;;;5.89;44.40;96872.88;5014968;28;20076;-52
2022/03/18 09:52:05;;;;;;;8.77;4.25;;;;;;;5.83;44.85;96889.00;5014228;28;20038;-48
2022/03/18 09:54:34;;;;;;;8.13;5.22;;;;;;;5.77;44.42;96884.44;5015737;28;20065;-53
2022/03/18 09:57:02;;;;;;;8.88;4.60;;;;;;;5.77;42.48;96865.53;5019999;28;20325;-48
2022/03/18 09:59:29;;;;;;;15.65;8.68;;;;;;;6.00;44.99;96873.66;5016299;28;20061;-50
2022/03/18 10:02:22;;;;;;;7.07;4.10;;;;;;;6.47;44.80;96881.03;5015828;28;20053;-48
2022/03/18 10:04:54;;;;;;;8.50;5.53;;;;;;;6.53;42.33;96884.75;5018817;28;20089;-51
2022/03/18 10:07:21;;;;;;;9.35;4.80;;;;;;;6.75;44.66;96883.41;5016936;28;20406;-54
2022/03/18 10:10:02;;;;;;;8.55;5.15;;;;;;;6.82;41.70;96874.03;5018633;28;20530;-54
2022/03/18 10:12:30;;;;;;;9.73;4.35;;;;;;;6.53;39.19;96885.56;5020896;28;20166;-52
2022/03/18 10:15:10;;;;;;;9.70;5.25;;;;;;;6.07;40.68;96890.19;5020331;28;20054;-50
2022/03/18 10:17:41;;;;;;;8.13;4.97;;;;;;;5.99;40.41;96897.88;5021076;28;20595;-49
2022/03/18 10:20:26;;;;;;;10.35;5.90;;;;;;;5.92;40.56;96898.47;5021782;28;20060;-52
2022/03/18 10:22:54;;;;;;;19.30;8.38;;;;;;;6.17;43.10;96888.28;5018146;28;20053;-47
2022/03/18 10:25:37;;;;;;;8.15;4.60;;;;;;;6.35;42.02;96882.25;5021683;28;20108;-52
2022/03/18 10:28:05;;;;;;;7.82;4.22;;;;;;;6.75;39.88;96883.41;5019242;28;20813;-53
2022/03/18 10:30:32;;;;;;;7.53;4.90;;;;;;;6.92;38.14;96890.25;5020021;28;22550;-52
2022/03/18 10:33:00;;;;;;;10.50;5.13;;;;;;;6.96;40.42;96881.19;5021452;28;20076;-52
2022/03/18 10:38:27;;;;;;;12.30;7.45;;;;;;;7.19;38.33;96880.63;5011130;28;20107;-54
2022/03/18 10:40:55;;;;;;;9.25;4.65;;;;;;;7.38;36.74;96890.69;5018846;28;20062;-54
2022/03/18 10:43:22;;;;;;;8.60;4.47;;;;;;;7.53;38.54;96871.91;5018824;28;20084;-52
2022/03/18 10:46:03;;;;;;;7.35;3.97;;;;;;;7.73;35.15;96868.03;5019168;28;20066;-54
2022/03/18 10:48:31;;;;;;;8.15;4.07;;;;;;;8.04;35.59;96869.94;5019445;28;20046;-49
2022/03/18 10:51:04;;;;;;;8.07;3.50;;;;;;;8.28;33.30;96876.06;5016462;28;20049;-51
2022/03/18 10:53:32;;;;;;;5.95;3.67;;;;;;;8.44;35.35;96870.84;5019243;28;20049;-48
2022/03/18 10:56:01;;;;;;;8.98;5.53;;;;;;;8.05;35.54;96871.56;5021209;28;20531;-50
2022/03/18 10:58:31;;;;;;;8.52;4.03;;;;;;;7.90;34.36;96871.41;5019303;28;20112;-51
2022/03/18 11:01:02;;;;;;;7.82;3.53;;;;;;;7.90;33.63;96868.00;5020282;28;20061;-48
2022/03/18 11:03:31;;;;;;;7.45;3.75;;;;;;;8.16;37.14;96863.44;5018893;28;20063;-52
2022/03/18 11:06:02;;;;;;;8.88;4.45;;;;;;;8.54;36.50;96865.47;5018012;28;20049;-49
2022/03/18 11:08:42;;;;;;;7.35;3.83;;;;;;;8.09;34.88;96872.84;5018507;28;20049;-52
2022/03/18 11:11:22;;;;;;;8.20;4.28;;;;;;;7.56;34.13;96868.97;5022233;28;20420;-51
2022/03/18 11:14:01;;;;;;;6.63;3.47;;;;;;;7.21;35.93;96863.13;5025574;28;20041;-53
2022/03/18 11:16:30;;;;;;;8.75;4.18;;;;;;;7.11;34.16;96865.03;5019829;28;20067;-51
2022/03/18 11:19:08;;;;;;;6.68;4.03;;;;;;;7.17;36.19;96861.84;5026228;28;20060;-50
2022/03/18 11:21:38;;;;;;;6.50;4.47;;;;;;;7.64;36.44;96853.44;5018002;28;20052;-51
2022/03/18 11:24:11;;;;;;;8.90;4.05;;;;;;;7.82;34.81;96855.84;5024920;28;20045;-51
2022/03/18 11:26:48;;;;;;;8.20;3.70;;;;;;;8.12;35.79;96849.16;5029862;28;20526;-48
2022/03/18 11:29:23;;;;;;;7.85;4.18;;;;;;;8.24;33.88;96858.19;5022970;28;20053;-53
2022/03/18 11:32:16;;;;;;;8.82;3.95;;;;;;;8.18;32.17;96856.28;5018079;28;20112;-50
2022/03/18 11:34:46;;;;;;;6.05;3.22;;;;;;;7.79;33.80;96851.00;5017795;28;20033;-52
2022/03/18 11:37:13;;;;;;;7.10;3.30;;;;;;;7.47;34.45;96852.59;5023834;28;20060;-51
2022/03/18 11:39:39;;;;;;;8.00;4.13;;;;;;;7.41;38.95;96854.06;5020278;28;20049;-50
2022/03/18 11:42:12;;;;;;;6.20;3.45;;;;;;;8.12;36.19;96853.53;5021587;28;20072;-55
2022/03/18 11:44:43;;;;;;;7.25;3.90;;;;;;;8.24;33.56;96853.00;5017894;28;20511;-52
2022/03/18 11:47:31;;;;;;;6.80;3.92;;;;;;;7.90;32.97;96852.44;5019228;28;20049;-51
2022/03/18 11:50:38;;;;;;;7.65;3.70;;;;;;;7.02;33.97;96844.31;5022398;28;20045;-47